createdAt,value
2022-10-19T00:01:07.968Z,61.82
2022-10-19T00:03:35.905Z,61.94
2022-10-19T00:06:29.156Z,61.78
2022-10-19T00:09:19.585Z,61.97
2022-10-19T00:11:48.859Z,61.88
2022-10-19T00:14:22.673Z,61.79
2022-10-19T00:16:51.396Z,61.97
2022-10-19T00:19:26.860Z,61.96
2022-10-19T00:21:54.200Z,62.07
2022-10-19T00:24:21.403Z,61.89
2022-10-19T00:26:48.430Z,62.15
2022-10-19T00:29:16.007Z,62.02
2022-10-19T00:31:43.037Z,62.20
2022-10-19T00:34:10.162Z,62.06
2022-10-19T00:36:39.622Z,62.12
2022-10-19T00:39:10.672Z,62.10
2022-10-19T00:41:38.521Z,62.08
2022-10-19T00:44:07.485Z,62.26
2022-10-19T00:46:37.210Z,62.44
2022-10-19T00:49:10.716Z,62.15
2022-10-19T00:51:41.438Z,62.19
2022-10-19T00:54:09.898Z,62.14
2022-10-19T00:56:40.318Z,62.17
2022-10-19T00:59:08.859Z,62.25
2022-10-19T01:01:36.532Z,62.08
2022-10-19T01:04:04.998Z,62.51
2022-10-19T01:06:33.205Z,62.32
2022-10-19T01:09:00.015Z,62.52
2022-10-19T01:11:45.433Z,62.46
2022-10-19T01:15:10.625Z,62.37
2022-10-19T01:17:59.051Z,62.45
2022-10-19T01:21:03.786Z,62.40
2022-10-19T01:24:18.180Z,62.38
2022-10-19T01:26:48.021Z,62.52
2022-10-19T01:29:36.765Z,62.37
2022-10-19T01:32:09.500Z,62.47
2022-10-19T01:34:58.562Z,62.48
2022-10-19T01:37:56.265Z,62.25
2022-10-19T01:40:34.294Z,62.49
2022-10-19T01:43:13.855Z,62.66
2022-10-19T01:45:46.920Z,62.56
2022-10-19T01:48:27.268Z,62.44
2022-10-19T01:51:07.853Z,62.39
2022-10-19T01:53:41.504Z,62.65
2022-10-19T01:56:10.055Z,62.47
2022-10-19T01:58:41.045Z,62.47
2022-10-19T02:03:58.855Z,62.29
2022-10-19T02:06:25.922Z,62.35
2022-10-19T02:08:54.665Z,62.34
2022-10-19T02:11:23.148Z,62.37
2022-10-19T02:14:01.256Z,62.23
2022-10-19T02:16:33.620Z,62.62
2022-10-19T02:19:02.449Z,62.36
2022-10-19T02:21:29.497Z,62.63
2022-10-19T02:23:56.293Z,62.39
2022-10-19T02:26:23.285Z,62.28
2022-10-19T02:28:50.788Z,62.55
2022-10-19T02:31:17.742Z,62.31
2022-10-19T02:33:44.734Z,62.34
2022-10-19T02:36:11.626Z,62.45
2022-10-19T02:38:38.649Z,62.38
2022-10-19T02:41:05.606Z,62.50
2022-10-19T02:43:36.564Z,62.40
2022-10-19T02:46:09.640Z,62.50
2022-10-19T02:48:39.267Z,62.88
2022-10-19T02:51:06.200Z,62.86
2022-10-19T02:53:33.083Z,62.71
2022-10-19T02:55:59.915Z,62.63
2022-10-19T02:58:26.767Z,62.59
2022-10-19T03:00:53.591Z,62.70
2022-10-19T03:03:20.440Z,62.82
2022-10-19T03:05:47.281Z,62.64
2022-10-19T03:08:14.115Z,62.80
2022-10-19T03:10:40.895Z,62.68
2022-10-19T03:13:07.712Z,62.67
2022-10-19T03:15:34.492Z,62.72
2022-10-19T03:18:01.341Z,62.75
2022-10-19T03:20:28.153Z,62.66
2022-10-19T03:22:55.011Z,62.55
2022-10-19T03:25:21.837Z,62.81
2022-10-19T03:27:48.687Z,62.83
2022-10-19T03:30:15.657Z,62.50
2022-10-19T03:32:42.432Z,62.36
2022-10-19T03:35:09.434Z,62.55
2022-10-19T03:37:36.556Z,62.86
2022-10-19T03:40:03.904Z,62.55
2022-10-19T03:42:30.788Z,62.42
2022-10-19T03:44:57.726Z,62.38
2022-10-19T03:47:24.723Z,62.33
2022-10-19T03:49:51.569Z,62.70
2022-10-19T03:52:19.597Z,62.70
2022-10-19T03:54:47.064Z,62.54
2022-10-19T03:57:13.914Z,62.48
2022-10-19T03:59:40.837Z,62.26
2022-10-19T04:02:07.721Z,62.72
2022-10-19T04:04:34.860Z,62.40
2022-10-19T04:07:01.753Z,62.82
2022-10-19T04:09:28.574Z,62.49
2022-10-19T04:11:55.439Z,62.64
2022-10-19T04:14:32.854Z,62.41
2022-10-19T04:17:05.960Z,62.69
2022-10-19T04:19:32.825Z,62.51
2022-10-19T04:21:59.737Z,62.46
2022-10-19T04:24:26.751Z,62.49
2022-10-19T04:26:55.635Z,62.52
2022-10-19T04:29:27.911Z,62.59
2022-10-19T04:31:57.601Z,62.52
2022-10-19T04:34:24.577Z,62.68
2022-10-19T04:36:51.457Z,62.95
2022-10-19T04:39:18.248Z,63.16
2022-10-19T04:41:45.161Z,63.00
2022-10-19T04:44:12.097Z,63.07
2022-10-19T04:46:39.082Z,63.28
2022-10-19T04:49:07.057Z,63.47
2022-10-19T04:51:34.841Z,63.38
2022-10-19T04:54:03.427Z,63.46
2022-10-19T04:56:32.653Z,63.27
2022-10-19T04:59:00.985Z,63.61
2022-10-19T05:01:30.177Z,63.44
2022-10-19T05:04:01.756Z,63.38
2022-10-19T05:06:29.498Z,63.49
2022-10-19T05:08:56.592Z,63.62
2022-10-19T05:11:23.702Z,63.72
2022-10-19T05:13:50.526Z,63.56
2022-10-19T05:16:20.092Z,63.80
2022-10-19T05:18:51.814Z,64.28
2022-10-19T05:21:20.840Z,64.09
2022-10-19T05:23:51.513Z,64.41
2022-10-19T05:26:20.604Z,64.34
2022-10-19T05:28:56.902Z,64.51
2022-10-19T05:31:27.044Z,64.82
2022-10-19T05:33:54.145Z,64.91
2022-10-19T05:36:26.355Z,64.91
2022-10-19T05:38:55.639Z,64.99
2022-10-19T05:41:23.769Z,65.15
2022-10-19T05:43:59.611Z,64.73
2022-10-19T05:46:28.052Z,64.76
2022-10-19T05:48:56.840Z,64.81
2022-10-19T05:51:24.963Z,64.62
2022-10-19T05:53:54.601Z,64.56
2022-10-19T05:56:27.851Z,64.42
2022-10-19T05:58:56.580Z,64.40
2022-10-19T06:01:23.444Z,64.22
2022-10-19T06:03:55.546Z,64.12
2022-10-19T06:06:23.298Z,64.22
2022-10-19T06:08:51.471Z,64.35
2022-10-19T06:11:20.932Z,64.16
2022-10-19T06:13:50.742Z,64.09
2022-10-19T06:16:19.499Z,64.22
2022-10-19T06:18:46.987Z,64.27
2022-10-19T06:21:16.314Z,64.26
2022-10-19T06:23:43.881Z,64.33
2022-10-19T06:26:13.477Z,64.70
2022-10-19T06:28:41.990Z,64.39
2022-10-19T06:31:09.319Z,64.43
2022-10-19T06:33:37.425Z,64.45
2022-10-19T06:36:12.329Z,64.50
2022-10-19T06:38:39.479Z,64.45
2022-10-19T06:41:07.014Z,64.40
2022-10-19T06:43:34.744Z,64.31
2022-10-19T06:46:10.856Z,64.37
2022-10-19T06:48:38.284Z,64.41
2022-10-19T06:51:07.931Z,64.44
2022-10-19T06:53:36.598Z,64.38
2022-10-19T06:56:06.291Z,64.61
2022-10-19T06:58:37.712Z,64.75
2022-10-19T07:01:07.994Z,64.49
2022-10-19T07:03:36.529Z,64.36
2022-10-19T07:06:06.469Z,64.41
2022-10-19T07:08:34.791Z,64.62
2022-10-19T07:11:06.614Z,64.55
2022-10-19T07:13:33.796Z,64.68
2022-10-19T07:16:05.782Z,64.41
2022-10-19T07:18:34.595Z,64.64
2022-10-19T07:21:03.719Z,64.47
2022-10-19T07:23:34.981Z,64.57
2022-10-19T07:26:12.716Z,64.46
2022-10-19T07:28:41.009Z,64.48
2022-10-19T07:31:14.419Z,64.32
2022-10-19T07:33:41.705Z,64.63
2022-10-19T07:36:10.731Z,64.48
2022-10-19T07:38:37.992Z,64.56
2022-10-19T07:41:13.727Z,64.62
2022-10-19T07:43:42.224Z,64.51
2022-10-19T07:46:12.772Z,64.68
2022-10-19T07:48:39.847Z,64.48
2022-10-19T07:51:08.600Z,64.27
2022-10-19T07:53:37.382Z,64.83
2022-10-19T07:56:12.769Z,64.65
2022-10-19T07:58:40.762Z,64.43
2022-10-19T08:01:14.180Z,64.49
2022-10-19T08:06:28.820Z,64.57
2022-10-19T08:08:56.550Z,64.49
2022-10-19T08:11:29.487Z,64.88
2022-10-19T08:13:58.886Z,64.67
2022-10-19T08:16:41.729Z,64.63
2022-10-19T08:19:11.592Z,64.49
2022-10-19T08:21:40.650Z,64.53
2022-10-19T08:24:08.417Z,64.34
2022-10-19T08:26:38.571Z,64.39
2022-10-19T08:29:15.072Z,64.21
2022-10-19T08:31:43.920Z,64.53
2022-10-19T08:34:12.028Z,64.36
2022-10-19T08:36:39.447Z,64.29
2022-10-19T08:39:09.566Z,64.52
2022-10-19T08:42:00.399Z,64.39
2022-10-19T08:44:56.848Z,64.62
2022-10-19T08:47:53.212Z,64.31
2022-10-19T08:50:38.734Z,64.11
2022-10-19T08:53:12.730Z,64.34
2022-10-19T08:55:55.191Z,64.31
2022-10-19T08:58:25.194Z,64.45
2022-10-19T09:01:07.793Z,64.24
2022-10-19T09:03:55.410Z,64.60
2022-10-19T09:06:34.719Z,64.55
2022-10-19T09:09:02.237Z,64.40
2022-10-19T09:11:35.035Z,64.38
2022-10-19T09:14:19.024Z,64.56
2022-10-19T09:16:46.782Z,64.73
2022-10-19T09:19:23.265Z,64.34
2022-10-19T09:21:55.096Z,64.43
2022-10-19T09:24:45.405Z,64.68
2022-10-19T09:27:23.024Z,64.49
2022-10-19T09:30:04.835Z,64.54
2022-10-19T09:32:38.886Z,64.72
2022-10-19T09:35:28.276Z,64.84
2022-10-19T09:37:56.758Z,64.09
2022-10-19T09:40:30.437Z,64.52
2022-10-19T09:42:59.138Z,64.98
2022-10-19T09:45:56.328Z,64.46
2022-10-19T09:48:32.519Z,64.45
2022-10-19T09:51:02.215Z,64.18
2022-10-19T09:53:30.568Z,64.35
2022-10-19T09:56:06.635Z,64.60
2022-10-19T09:58:35.253Z,64.65
2022-10-19T10:01:03.905Z,64.12
2022-10-19T10:03:40.715Z,64.54
2022-10-19T10:06:09.048Z,64.46
2022-10-19T10:08:49.070Z,64.44
2022-10-19T10:11:24.609Z,64.43
2022-10-19T10:13:54.151Z,64.39
2022-10-19T10:16:24.186Z,64.34
2022-10-19T10:19:09.169Z,64.32
2022-10-19T10:21:51.377Z,64.50
2022-10-19T10:24:20.243Z,64.10
2022-10-19T10:26:51.114Z,64.17
2022-10-19T10:29:26.018Z,64.11
2022-10-19T10:32:04.120Z,64.13
2022-10-19T10:34:45.398Z,63.99
2022-10-19T10:37:38.136Z,64.20
2022-10-19T10:40:07.040Z,64.13
2022-10-19T10:42:46.179Z,64.11
2022-10-19T10:45:32.691Z,64.31
2022-10-19T10:48:19.315Z,64.46
2022-10-19T10:50:46.536Z,64.16
2022-10-19T10:53:40.275Z,64.36
2022-10-19T10:56:22.238Z,64.31
2022-10-19T10:58:51.724Z,64.50
2022-10-19T11:01:23.062Z,64.44
2022-10-19T11:04:02.110Z,64.53
2022-10-19T11:06:30.179Z,64.58
2022-10-19T11:09:12.043Z,64.71
2022-10-19T11:11:50.079Z,64.40
2022-10-19T11:14:31.212Z,64.67
2022-10-19T11:17:07.397Z,64.81
2022-10-19T11:19:37.231Z,65.09
2022-10-19T11:22:25.009Z,64.91
2022-10-19T11:25:16.424Z,64.89
2022-10-19T11:28:15.647Z,64.91
2022-10-19T11:31:19.476Z,65.00
2022-10-19T11:34:29.661Z,65.14
2022-10-19T11:37:25.299Z,64.97
2022-10-19T11:40:10.917Z,64.72
2022-10-19T11:42:40.552Z,64.99
2022-10-19T11:45:25.560Z,64.93
2022-10-19T11:48:04.510Z,64.78
2022-10-19T11:50:36.999Z,64.97
2022-10-19T11:53:18.835Z,64.93
2022-10-19T11:55:59.846Z,64.74
2022-10-19T11:58:54.181Z,64.78
2022-10-19T12:01:33.544Z,64.84
2022-10-19T12:04:04.493Z,64.89
2022-10-19T12:06:44.241Z,64.63
2022-10-19T12:09:31.932Z,64.81
2022-10-19T12:12:20.249Z,64.86
2022-10-19T12:14:51.721Z,64.94
2022-10-19T12:17:26.817Z,64.96
2022-10-19T12:20:03.984Z,64.94
2022-10-19T12:22:32.080Z,64.95
2022-10-19T12:25:01.812Z,64.82
2022-10-19T12:27:34.439Z,64.85
2022-10-19T12:30:14.179Z,64.77
2022-10-19T12:33:16.024Z,64.90
2022-10-19T12:36:00.809Z,65.07
2022-10-19T12:38:42.279Z,65.07
2022-10-19T12:41:24.942Z,65.16
2022-10-19T12:44:15.100Z,65.13
2022-10-19T12:46:49.897Z,65.02
2022-10-19T12:49:45.047Z,65.13
2022-10-19T12:52:14.406Z,65.12
2022-10-19T12:54:43.612Z,65.05
2022-10-19T12:57:28.640Z,64.96
2022-10-19T13:00:19.919Z,65.08
2022-10-19T13:02:56.279Z,64.89
2022-10-19T13:05:26.569Z,65.17
2022-10-19T13:07:54.260Z,65.29
2022-10-19T13:10:27.356Z,65.11
2022-10-19T13:12:55.233Z,64.95
2022-10-19T13:15:42.730Z,65.36
2022-10-19T13:18:17.255Z,65.43
2022-10-19T13:20:54.626Z,65.16
2022-10-19T13:23:27.816Z,65.39
2022-10-19T13:26:33.833Z,65.67
2022-10-19T13:29:01.326Z,65.35
2022-10-19T13:31:34.526Z,64.98
2022-10-19T13:34:10.089Z,65.06
2022-10-19T13:36:39.698Z,65.37
2022-10-19T13:39:14.045Z,65.49
2022-10-19T13:41:49.590Z,65.43
2022-10-19T13:44:25.315Z,65.69
2022-10-19T13:47:11.153Z,65.74
2022-10-19T13:50:15.632Z,65.62
2022-10-19T13:53:03.824Z,65.76
2022-10-19T13:55:47.327Z,65.93
2022-10-19T13:58:20.561Z,65.52
2022-10-19T14:01:02.611Z,65.33
2022-10-19T14:03:45.830Z,65.48
2022-10-19T14:06:24.714Z,65.43
2022-10-19T14:09:22.139Z,65.29
2022-10-19T14:11:53.268Z,65.27
2022-10-19T14:14:19.999Z,65.21
2022-10-19T14:16:59.669Z,65.28
2022-10-19T14:19:43.160Z,65.34
2022-10-19T14:22:25.438Z,65.53
2022-10-19T14:24:53.257Z,65.47
2022-10-19T14:27:24.991Z,65.13
2022-10-19T14:29:54.380Z,65.26
2022-10-19T14:32:25.665Z,65.36
2022-10-19T14:34:53.508Z,65.38
2022-10-19T14:37:24.529Z,65.80
2022-10-19T14:40:05.818Z,65.64
2022-10-19T14:42:40.220Z,65.24
2022-10-19T14:45:14.351Z,65.16
2022-10-19T14:48:02.829Z,65.19
2022-10-19T14:50:33.370Z,65.08
2022-10-19T14:53:45.107Z,65.36
2022-10-19T14:56:16.738Z,65.28
2022-10-19T14:59:19.423Z,65.17
2022-10-19T15:01:51.647Z,65.40
2022-10-19T15:04:25.206Z,65.05
2022-10-19T15:06:53.271Z,65.18
2022-10-19T15:09:37.181Z,65.28
2022-10-19T15:12:14.696Z,65.10
2022-10-19T15:14:42.345Z,65.29
2022-10-19T15:17:30.030Z,65.39
2022-10-19T15:20:01.592Z,65.29
2022-10-19T15:22:31.788Z,65.34
2022-10-19T15:25:08.808Z,65.20
2022-10-19T15:27:42.388Z,65.53
2022-10-19T15:30:18.757Z,65.31
2022-10-19T15:32:48.678Z,65.62
2022-10-19T15:35:34.416Z,65.50
2022-10-19T15:38:11.276Z,65.15
2022-10-19T15:40:41.163Z,65.35
2022-10-19T15:43:29.935Z,65.14
2022-10-19T15:46:28.608Z,65.41
2022-10-19T15:48:57.452Z,65.48
2022-10-19T15:51:27.663Z,65.56
2022-10-19T15:53:55.914Z,65.60
2022-10-19T15:56:24.818Z,65.32
2022-10-19T15:58:54.810Z,65.57
2022-10-19T16:01:28.345Z,65.13
2022-10-19T16:03:55.977Z,65.66
2022-10-19T16:06:27.103Z,65.52
2022-10-19T16:08:57.198Z,65.41
2022-10-19T16:11:24.701Z,65.57
2022-10-19T16:13:52.094Z,65.16
2022-10-19T16:16:28.657Z,65.28
2022-10-19T16:18:56.397Z,65.39
2022-10-19T16:21:27.761Z,65.32
2022-10-19T16:23:54.677Z,65.17
2022-10-19T16:26:22.826Z,65.44
2022-10-19T16:28:50.026Z,65.59
2022-10-19T16:31:18.322Z,65.26
2022-10-19T16:33:45.338Z,65.45
2022-10-19T16:36:13.477Z,65.60
2022-10-19T16:38:40.783Z,65.58
2022-10-19T16:41:09.663Z,65.75
2022-10-19T16:43:37.122Z,65.58
2022-10-19T16:46:05.578Z,65.53
2022-10-19T16:48:33.192Z,65.71
2022-10-19T16:51:06.234Z,65.66
2022-10-19T16:53:37.233Z,65.78
2022-10-19T16:56:13.691Z,65.80
2022-10-19T16:58:41.217Z,65.95
2022-10-19T17:01:19.489Z,65.78
2022-10-19T17:03:48.060Z,65.77
2022-10-19T17:06:15.844Z,65.63
2022-10-19T17:11:32.823Z,65.98
2022-10-19T17:14:03.417Z,65.77
2022-10-19T17:16:32.902Z,66.04
2022-10-19T17:19:01.579Z,65.73
2022-10-19T17:21:31.863Z,65.82
2022-10-19T17:24:01.896Z,65.95
2022-10-19T17:26:40.505Z,66.02
2022-10-19T17:29:07.585Z,65.85
2022-10-19T17:31:35.487Z,65.72
2022-10-19T17:34:03.135Z,65.60
2022-10-19T17:36:33.203Z,65.12
2022-10-19T17:39:02.986Z,65.13
2022-10-19T17:41:31.451Z,65.28
2022-10-19T17:43:58.799Z,65.62
2022-10-19T17:46:29.265Z,65.68
2022-10-19T17:48:57.248Z,66.08
2022-10-19T17:51:30.480Z,66.07
2022-10-19T17:53:59.981Z,65.86
2022-10-19T17:56:27.996Z,65.82
2022-10-19T17:58:56.156Z,66.05
2022-10-19T18:01:24.062Z,66.33
2022-10-19T18:03:51.160Z,66.18
2022-10-19T18:06:20.932Z,66.30
2022-10-19T18:08:52.012Z,65.92
2022-10-19T18:11:23.405Z,66.22
2022-10-19T18:13:51.746Z,66.29
2022-10-19T18:16:30.933Z,66.38
2022-10-19T18:19:00.163Z,66.76
2022-10-19T18:21:32.860Z,66.55
2022-10-19T18:24:02.028Z,66.57
2022-10-19T18:26:32.773Z,65.91
2022-10-19T18:29:02.645Z,66.09
2022-10-19T18:31:31.625Z,66.16
2022-10-19T18:34:03.850Z,65.99
2022-10-19T18:36:32.055Z,65.71
2022-10-19T18:39:01.995Z,65.66
2022-10-19T18:41:30.519Z,64.50
2022-10-19T18:44:01.714Z,65.38
2022-10-19T18:46:28.619Z,65.38
2022-10-19T18:48:55.775Z,65.43
2022-10-19T18:51:24.459Z,65.27
2022-10-19T18:53:51.879Z,65.40
2022-10-19T18:56:22.269Z,65.41
2022-10-19T18:58:51.431Z,65.00
2022-10-19T19:01:23.461Z,65.10
2022-10-19T19:03:54.356Z,65.33
2022-10-19T19:06:33.547Z,65.05
2022-10-19T19:09:04.948Z,64.74
2022-10-19T19:11:38.460Z,65.06
2022-10-19T19:14:17.101Z,64.86
2022-10-19T19:16:45.722Z,64.76
2022-10-19T19:19:16.061Z,64.26
2022-10-19T19:21:44.929Z,64.16
2022-10-19T19:24:15.602Z,64.20
2022-10-19T19:26:47.798Z,64.55
2022-10-19T19:29:15.658Z,64.91
2022-10-19T19:31:42.764Z,64.94
2022-10-19T19:34:10.312Z,64.96
2022-10-19T19:36:39.041Z,65.00
2022-10-19T19:39:06.716Z,64.77
2022-10-19T19:41:34.720Z,64.17
2022-10-19T19:44:01.988Z,63.45
2022-10-19T19:46:29.442Z,62.99
2022-10-19T19:49:02.947Z,63.05
2022-10-19T19:51:33.364Z,62.98
2022-10-19T19:54:01.979Z,62.75
2022-10-19T19:56:29.681Z,62.60
2022-10-19T19:58:58.769Z,62.66
2022-10-19T20:01:29.807Z,62.47
2022-10-19T20:03:58.749Z,62.32
2022-10-19T20:06:26.337Z,62.14
2022-10-19T20:08:55.148Z,62.02
2022-10-19T20:11:23.824Z,61.80
2022-10-19T20:13:51.248Z,61.72
2022-10-19T20:16:23.813Z,61.55
2022-10-19T20:19:05.035Z,61.53
2022-10-19T20:21:35.442Z,61.20
2022-10-19T20:24:05.234Z,61.55
2022-10-19T20:26:34.931Z,61.14
2022-10-19T20:29:04.323Z,60.82
2022-10-19T20:31:40.079Z,60.82
2022-10-19T20:34:14.264Z,60.41
2022-10-19T20:36:44.110Z,60.31
2022-10-19T20:39:11.372Z,60.30
2022-10-19T20:41:38.726Z,60.55
2022-10-19T20:44:06.185Z,60.45
2022-10-19T20:46:54.740Z,60.25
2022-10-19T20:49:22.395Z,60.28
2022-10-19T20:51:51.079Z,60.25
2022-10-19T20:54:23.401Z,60.21
2022-10-19T20:56:52.077Z,60.06
2022-10-19T20:59:22.850Z,60.13
2022-10-19T21:01:51.942Z,60.22
2022-10-19T21:04:19.938Z,59.99
2022-10-19T21:06:49.801Z,59.28
2022-10-19T21:09:19.153Z,60.06
2022-10-19T21:11:50.449Z,59.80
2022-10-19T21:14:25.244Z,59.78
2022-10-19T21:16:57.023Z,59.66
2022-10-19T21:19:25.887Z,59.82
2022-10-19T21:21:57.255Z,59.96
2022-10-19T21:24:33.117Z,59.84
2022-10-19T21:27:05.594Z,59.92
2022-10-19T21:29:32.853Z,60.05
2022-10-19T21:32:00.039Z,60.17
2022-10-19T21:34:29.770Z,60.10
2022-10-19T21:36:57.311Z,60.18
2022-10-19T21:39:24.258Z,60.46
2022-10-19T21:41:52.039Z,60.36
2022-10-19T21:44:22.365Z,60.22
2022-10-19T21:46:50.105Z,60.36
2022-10-19T21:49:17.314Z,60.69
2022-10-19T21:51:54.062Z,60.51
2022-10-19T21:54:25.170Z,60.55
2022-10-19T21:56:53.615Z,60.59
2022-10-19T21:59:20.623Z,60.69
2022-10-19T22:01:51.845Z,60.98
2022-10-19T22:04:19.266Z,60.86
2022-10-19T22:06:47.186Z,60.90
2022-10-19T22:09:17.338Z,60.92
2022-10-19T22:11:44.808Z,61.09
2022-10-19T22:14:13.736Z,60.93
2022-10-19T22:16:41.683Z,61.22
2022-10-19T22:19:10.224Z,61.15
2022-10-19T22:24:08.277Z,61.27
2022-10-19T22:26:38.543Z,61.40
2022-10-19T22:29:07.190Z,61.18
2022-10-19T22:31:34.983Z,61.43
2022-10-19T22:34:04.411Z,61.57
2022-10-19T22:36:31.390Z,61.31
2022-10-19T22:38:58.241Z,61.63
2022-10-19T22:42:02.602Z,61.50
2022-10-19T22:44:29.942Z,61.62
2022-10-19T22:46:57.525Z,61.58
2022-10-19T22:49:24.636Z,61.72
2022-10-19T22:51:51.500Z,62.08
2022-10-19T22:54:18.359Z,61.77
2022-10-19T22:56:45.216Z,61.97
2022-10-19T22:59:12.122Z,61.92
2022-10-19T23:01:39.022Z,62.07
2022-10-19T23:04:05.998Z,61.93
2022-10-19T23:06:32.966Z,62.14
2022-10-19T23:08:59.854Z,62.19
2022-10-19T23:11:26.692Z,62.29
2022-10-19T23:13:53.631Z,62.16
2022-10-19T23:16:20.579Z,62.38
2022-10-19T23:18:47.514Z,62.42
2022-10-19T23:21:15.494Z,62.19
2022-10-19T23:23:42.937Z,62.49
2022-10-19T23:26:15.683Z,62.56
2022-10-19T23:28:44.494Z,62.48
2022-10-19T23:31:14.389Z,62.47
2022-10-19T23:33:41.544Z,62.61
2022-10-19T23:36:13.365Z,62.59
2022-10-19T23:38:40.837Z,62.84
2022-10-19T23:41:07.845Z,62.80
2022-10-19T23:46:21.628Z,62.87
2022-10-19T23:48:48.598Z,62.75
2022-10-19T23:51:17.722Z,62.83
2022-10-19T23:53:46.214Z,62.92
2022-10-19T23:56:17.081Z,62.99
2022-10-19T23:58:44.576Z,63.07
